sensor_id;sensor_type;location;lat;lon;timestamp;P1;durP1;ratioP1;P2;durP2;ratioP2
22826;SDS011;11580;52.562;13.418;2023-11-19T00:02:20;6.20;;;5.70;;
22826;SDS011;11580;52.562;13.418;2023-11-19T00:04:47;6.30;;;5.80;;
22826;SDS011;11580;52.562;13.418;2023-11-19T00:07:14;6.67;;;6.07;;
22826;SDS011;11580;52.562;13.418;2023-11-19T00:09:41;7.70;;;7.00;;
22826;SDS011;11580;52.562;13.418;2023-11-19T00:12:09;7.00;;;6.50;;
22826;SDS011;11580;52.562;13.418;2023-11-19T00:14:37;6.20;;;5.70;;
22826;SDS011;11580;52.562;13.418;2023-11-19T00:17:04;6.70;;;6.20;;
22826;SDS011;11580;52.562;13.418;2023-11-19T00:19:31;7.67;;;7.07;;
22826;SDS011;11580;52.562;13.418;2023-11-19T00:21:59;6.50;;;6.00;;
22826;SDS011;11580;52.562;13.418;2023-11-19T00:24:28;7.33;;;5.47;;
22826;SDS011;11580;52.562;13.418;2023-11-19T00:26:55;7.00;;;6.40;;
22826;SDS011;11580;52.562;13.418;2023-11-19T00:29:23;6.00;;;5.60;;
22826;SDS011;11580;52.562;13.418;2023-11-19T00:31:51;6.10;;;5.60;;
22826;SDS011;11580;52.562;13.418;2023-11-19T00:34:18;6.50;;;6.00;;
22826;SDS011;11580;52.562;13.418;2023-11-19T00:36:47;6.10;;;5.70;;
22826;SDS011;11580;52.562;13.418;2023-11-19T00:39:14;6.00;;;5.50;;
22826;SDS011;11580;52.562;13.418;2023-11-19T00:41:42;6.90;;;6.33;;
22826;SDS011;11580;52.562;13.418;2023-11-19T00:44:11;7.70;;;7.10;;
22826;SDS011;11580;52.562;13.418;2023-11-19T00:46:38;6.60;;;6.00;;
22826;SDS011;11580;52.562;13.418;2023-11-19T00:49:07;7.20;;;6.50;;
22826;SDS011;11580;52.562;13.418;2023-11-19T00:51:36;6.70;;;6.07;;
22826;SDS011;11580;52.562;13.418;2023-11-19T00:54:04;6.20;;;5.70;;
22826;SDS011;11580;52.562;13.418;2023-11-19T00:56:31;5.80;;;5.30;;
22826;SDS011;11580;52.562;13.418;2023-11-19T00:58:58;6.43;;;5.83;;
22826;SDS011;11580;52.562;13.418;2023-11-19T01:01:26;5.73;;;5.23;;
22826;SDS011;11580;52.562;13.418;2023-11-19T01:03:53;6.17;;;5.70;;
22826;SDS011;11580;52.562;13.418;2023-11-19T01:06:30;6.27;;;5.70;;
22826;SDS011;11580;52.562;13.418;2023-11-19T01:08:58;6.10;;;5.50;;
22826;SDS011;11580;52.562;13.418;2023-11-19T01:11:25;6.33;;;5.83;;
22826;SDS011;11580;52.562;13.418;2023-11-19T01:13:53;6.47;;;5.87;;
22826;SDS011;11580;52.562;13.418;2023-11-19T01:16:20;6.70;;;6.20;;
22826;SDS011;11580;52.562;13.418;2023-11-19T01:18:48;5.70;;;5.30;;
22826;SDS011;11580;52.562;13.418;2023-11-19T01:21:15;6.27;;;5.77;;
22826;SDS011;11580;52.562;13.418;2023-11-19T01:23:44;4.83;;;4.40;;
22826;SDS011;11580;52.562;13.418;2023-11-19T01:26:12;6.10;;;5.70;;
22826;SDS011;11580;52.562;13.418;2023-11-19T01:28:39;5.10;;;4.73;;
22826;SDS011;11580;52.562;13.418;2023-11-19T01:31:08;6.17;;;5.67;;
22826;SDS011;11580;52.562;13.418;2023-11-19T01:33:35;6.13;;;5.63;;
22826;SDS011;11580;52.562;13.418;2023-11-19T01:36:03;5.80;;;5.30;;
22826;SDS011;11580;52.562;13.418;2023-11-19T01:38:31;5.90;;;5.40;;
22826;SDS011;11580;52.562;13.418;2023-11-19T01:41:00;5.43;;;5.03;;
22826;SDS011;11580;52.562;13.418;2023-11-19T01:43:32;4.87;;;4.50;;
22826;SDS011;11580;52.562;13.418;2023-11-19T01:45:59;6.00;;;5.50;;
22826;SDS011;11580;52.562;13.418;2023-11-19T01:48:27;5.87;;;5.37;;
22826;SDS011;11580;52.562;13.418;2023-11-19T01:50:55;5.53;;;5.00;;
22826;SDS011;11580;52.562;13.418;2023-11-19T01:53:24;5.20;;;4.80;;
22826;SDS011;11580;52.562;13.418;2023-11-19T01:55:52;5.23;;;4.73;;
22826;SDS011;11580;52.562;13.418;2023-11-19T01:58:21;5.50;;;4.97;;
22826;SDS011;11580;52.562;13.418;2023-11-19T02:00:49;5.80;;;5.40;;
22826;SDS011;11580;52.562;13.418;2023-11-19T02:03:17;5.53;;;5.03;;
22826;SDS011;11580;52.562;13.418;2023-11-19T02:05:46;6.17;;;5.60;;
22826;SDS011;11580;52.562;13.418;2023-11-19T02:08:16;5.83;;;5.40;;
22826;SDS011;11580;52.562;13.418;2023-11-19T02:10:44;5.17;;;4.77;;
22826;SDS011;11580;52.562;13.418;2023-11-19T02:13:11;5.57;;;5.17;;
22826;SDS011;11580;52.562;13.418;2023-11-19T02:15:41;5.93;;;5.50;;
22826;SDS011;11580;52.562;13.418;2023-11-19T02:18:21;5.40;;;5.10;;
22826;SDS011;11580;52.562;13.418;2023-11-19T02:20:53;5.33;;;4.93;;
22826;SDS011;11580;52.562;13.418;2023-11-19T02:23:21;5.23;;;4.83;;
22826;SDS011;11580;52.562;13.418;2023-11-19T02:25:56;5.47;;;5.03;;
22826;SDS011;11580;52.562;13.418;2023-11-19T02:28:40;5.60;;;5.20;;
22826;SDS011;11580;52.562;13.418;2023-11-19T02:31:08;4.90;;;4.50;;
22826;SDS011;11580;52.562;13.418;2023-11-19T02:33:36;5.33;;;4.90;;
22826;SDS011;11580;52.562;13.418;2023-11-19T02:36:04;5.40;;;5.00;;
22826;SDS011;11580;52.562;13.418;2023-11-19T02:38:33;5.57;;;5.10;;
22826;SDS011;11580;52.562;13.418;2023-11-19T02:41:02;5.80;;;5.30;;
22826;SDS011;11580;52.562;13.418;2023-11-19T02:43:32;5.07;;;4.67;;
22826;SDS011;11580;52.562;13.418;2023-11-19T02:46:01;5.23;;;4.90;;
22826;SDS011;11580;52.562;13.418;2023-11-19T02:48:32;5.07;;;4.70;;
22826;SDS011;11580;52.562;13.418;2023-11-19T02:51:00;5.10;;;4.70;;
22826;SDS011;11580;52.562;13.418;2023-11-19T02:53:28;4.87;;;4.47;;
22826;SDS011;11580;52.562;13.418;2023-11-19T02:55:56;5.00;;;4.60;;
22826;SDS011;11580;52.562;13.418;2023-11-19T02:58:27;4.77;;;4.47;;
22826;SDS011;11580;52.562;13.418;2023-11-19T03:00:55;5.10;;;4.60;;
22826;SDS011;11580;52.562;13.418;2023-11-19T03:03:26;4.43;;;4.13;;
22826;SDS011;11580;52.562;13.418;2023-11-19T03:06:03;4.33;;;4.03;;
22826;SDS011;11580;52.562;13.418;2023-11-19T03:08:31;4.00;;;3.70;;
22826;SDS011;11580;52.562;13.418;2023-11-19T03:10:59;4.23;;;3.93;;
22826;SDS011;11580;52.562;13.418;2023-11-19T03:13:26;4.40;;;4.10;;
22826;SDS011;11580;52.562;13.418;2023-11-19T03:15:53;3.93;;;3.63;;
22826;SDS011;11580;52.562;13.418;2023-11-19T03:18:20;4.63;;;4.30;;
22826;SDS011;11580;52.562;13.418;2023-11-19T03:20:48;5.43;;;3.80;;
22826;SDS011;11580;52.562;13.418;2023-11-19T03:23:17;4.43;;;4.13;;
22826;SDS011;11580;52.562;13.418;2023-11-19T03:25:44;3.40;;;3.20;;
22826;SDS011;11580;52.562;13.418;2023-11-19T03:28:11;4.27;;;3.93;;
22826;SDS011;11580;52.562;13.418;2023-11-19T03:30:38;4.43;;;4.03;;
22826;SDS011;11580;52.562;13.418;2023-11-19T03:33:07;3.83;;;3.53;;
22826;SDS011;11580;52.562;13.418;2023-11-19T03:35:34;3.97;;;3.67;;
22826;SDS011;11580;52.562;13.418;2023-11-19T03:38:02;3.93;;;3.63;;
22826;SDS011;11580;52.562;13.418;2023-11-19T03:40:30;4.10;;;3.80;;
22826;SDS011;11580;52.562;13.418;2023-11-19T03:42:57;4.60;;;4.30;;
22826;SDS011;11580;52.562;13.418;2023-11-19T03:45:24;3.93;;;3.63;;
22826;SDS011;11580;52.562;13.418;2023-11-19T03:47:51;4.17;;;3.87;;
22826;SDS011;11580;52.562;13.418;2023-11-19T03:50:18;4.87;;;4.47;;
22826;SDS011;11580;52.562;13.418;2023-11-19T03:52:46;4.53;;;4.17;;
22826;SDS011;11580;52.562;13.418;2023-11-19T03:55:14;4.80;;;4.40;;
22826;SDS011;11580;52.562;13.418;2023-11-19T03:57:42;4.23;;;3.93;;
22826;SDS011;11580;52.562;13.418;2023-11-19T04:00:09;4.53;;;4.23;;
22826;SDS011;11580;52.562;13.418;2023-11-19T04:02:39;4.10;;;3.80;;
22826;SDS011;11580;52.562;13.418;2023-11-19T04:05:07;4.83;;;3.97;;
22826;SDS011;11580;52.562;13.418;2023-11-19T04:07:34;3.57;;;3.30;;
22826;SDS011;11580;52.562;13.418;2023-11-19T04:10:01;4.80;;;4.50;;
22826;SDS011;11580;52.562;13.418;2023-11-19T04:12:31;4.60;;;4.30;;
22826;SDS011;11580;52.562;13.418;2023-11-19T04:14:58;5.07;;;4.67;;
22826;SDS011;11580;52.562;13.418;2023-11-19T04:17:25;4.57;;;4.17;;
22826;SDS011;11580;52.562;13.418;2023-11-19T04:19:52;4.40;;;4.10;;
22826;SDS011;11580;52.562;13.418;2023-11-19T04:22:20;4.37;;;4.00;;
22826;SDS011;11580;52.562;13.418;2023-11-19T04:24:47;6.23;;;5.07;;
22826;SDS011;11580;52.562;13.418;2023-11-19T04:27:15;5.20;;;4.80;;
22826;SDS011;11580;52.562;13.418;2023-11-19T04:29:43;4.60;;;4.20;;
22826;SDS011;11580;52.562;13.418;2023-11-19T04:32:12;5.10;;;4.70;;
22826;SDS011;11580;52.562;13.418;2023-11-19T04:34:39;4.87;;;4.47;;
22826;SDS011;11580;52.562;13.418;2023-11-19T04:37:06;5.23;;;4.83;;
22826;SDS011;11580;52.562;13.418;2023-11-19T04:39:34;5.37;;;4.83;;
22826;SDS011;11580;52.562;13.418;2023-11-19T04:42:02;4.80;;;4.40;;
22826;SDS011;11580;52.562;13.418;2023-11-19T04:44:31;5.37;;;4.97;;
22826;SDS011;11580;52.562;13.418;2023-11-19T04:47:00;4.77;;;4.37;;
22826;SDS011;11580;52.562;13.418;2023-11-19T04:49:27;5.10;;;4.70;;
22826;SDS011;11580;52.562;13.418;2023-11-19T04:51:55;4.40;;;4.10;;
22826;SDS011;11580;52.562;13.418;2023-11-19T04:54:22;5.60;;;5.13;;
22826;SDS011;11580;52.562;13.418;2023-11-19T04:56:50;4.97;;;4.57;;
22826;SDS011;11580;52.562;13.418;2023-11-19T04:59:17;5.10;;;4.70;;
22826;SDS011;11580;52.562;13.418;2023-11-19T05:01:46;6.50;;;6.00;;
22826;SDS011;11580;52.562;13.418;2023-11-19T05:04:15;5.53;;;5.13;;
22826;SDS011;11580;52.562;13.418;2023-11-19T05:06:44;4.93;;;4.63;;
22826;SDS011;11580;52.562;13.418;2023-11-19T05:09:11;5.57;;;5.17;;
22826;SDS011;11580;52.562;13.418;2023-11-19T05:11:38;5.10;;;4.70;;
22826;SDS011;11580;52.562;13.418;2023-11-19T05:14:06;6.80;;;5.00;;
22826;SDS011;11580;52.562;13.418;2023-11-19T05:16:34;6.00;;;5.20;;
22826;SDS011;11580;52.562;13.418;2023-11-19T05:19:01;5.27;;;4.87;;
22826;SDS011;11580;52.562;13.418;2023-11-19T05:21:30;5.00;;;4.60;;
22826;SDS011;11580;52.562;13.418;2023-11-19T05:23:57;4.77;;;4.47;;
22826;SDS011;11580;52.562;13.418;2023-11-19T05:26:24;4.67;;;4.37;;
22826;SDS011;11580;52.562;13.418;2023-11-19T05:28:52;4.73;;;4.33;;
22826;SDS011;11580;52.562;13.418;2023-11-19T05:31:19;4.13;;;3.83;;
22826;SDS011;11580;52.562;13.418;2023-11-19T05:33:46;5.13;;;4.67;;
22826;SDS011;11580;52.562;13.418;2023-11-19T05:36:14;4.80;;;4.40;;
22826;SDS011;11580;52.562;13.418;2023-11-19T05:38:42;4.07;;;3.77;;
22826;SDS011;11580;52.562;13.418;2023-11-19T05:41:10;4.63;;;4.33;;
22826;SDS011;11580;52.562;13.418;2023-11-19T05:43:38;4.37;;;4.07;;
22826;SDS011;11580;52.562;13.418;2023-11-19T05:46:06;4.57;;;4.27;;
22826;SDS011;11580;52.562;13.418;2023-11-19T05:48:34;4.30;;;4.00;;
22826;SDS011;11580;52.562;13.418;2023-11-19T05:51:01;4.53;;;4.13;;
22826;SDS011;11580;52.562;13.418;2023-11-19T05:53:28;4.30;;;4.00;;
22826;SDS011;11580;52.562;13.418;2023-11-19T05:55:57;3.90;;;3.60;;
22826;SDS011;11580;52.562;13.418;2023-11-19T05:58:29;4.27;;;3.97;;
22826;SDS011;11580;52.562;13.418;2023-11-19T06:00:57;5.00;;;3.63;;
22826;SDS011;11580;52.562;13.418;2023-11-19T06:03:27;4.07;;;3.77;;
22826;SDS011;11580;52.562;13.418;2023-11-19T06:05:55;4.30;;;4.00;;
22826;SDS011;11580;52.562;13.418;2023-11-19T06:08:22;4.60;;;4.30;;
22826;SDS011;11580;52.562;13.418;2023-11-19T06:10:49;4.43;;;4.13;;
22826;SDS011;11580;52.562;13.418;2023-11-19T06:13:18;4.20;;;3.90;;
22826;SDS011;11580;52.562;13.418;2023-11-19T06:15:45;4.17;;;3.87;;
22826;SDS011;11580;52.562;13.418;2023-11-19T06:18:12;4.33;;;3.60;;
22826;SDS011;11580;52.562;13.418;2023-11-19T06:20:40;4.53;;;4.20;;
22826;SDS011;11580;52.562;13.418;2023-11-19T06:23:07;5.20;;;4.80;;
22826;SDS011;11580;52.562;13.418;2023-11-19T06:25:34;3.90;;;3.57;;
22826;SDS011;11580;52.562;13.418;2023-11-19T06:28:02;3.87;;;3.57;;
22826;SDS011;11580;52.562;13.418;2023-11-19T06:30:31;3.80;;;3.50;;
22826;SDS011;11580;52.562;13.418;2023-11-19T06:32:58;3.90;;;3.50;;
22826;SDS011;11580;52.562;13.418;2023-11-19T06:35:26;3.63;;;3.43;;
22826;SDS011;11580;52.562;13.418;2023-11-19T06:37:55;4.13;;;3.83;;
22826;SDS011;11580;52.562;13.418;2023-11-19T06:40:22;4.23;;;3.93;;
22826;SDS011;11580;52.562;13.418;2023-11-19T06:42:50;3.63;;;3.33;;
22826;SDS011;11580;52.562;13.418;2023-11-19T06:45:17;3.60;;;3.40;;
22826;SDS011;11580;52.562;13.418;2023-11-19T06:47:46;3.80;;;3.50;;
22826;SDS011;11580;52.562;13.418;2023-11-19T06:50:14;3.80;;;3.50;;
22826;SDS011;11580;52.562;13.418;2023-11-19T06:52:43;3.40;;;3.20;;
22826;SDS011;11580;52.562;13.418;2023-11-19T06:55:10;4.53;;;4.23;;
22826;SDS011;11580;52.562;13.418;2023-11-19T06:57:37;3.13;;;2.93;;
22826;SDS011;11580;52.562;13.418;2023-11-19T07:00:05;3.30;;;3.10;;
22826;SDS011;11580;52.562;13.418;2023-11-19T07:02:34;3.10;;;2.90;;
22826;SDS011;11580;52.562;13.418;2023-11-19T07:05:03;3.60;;;3.30;;
22826;SDS011;11580;52.562;13.418;2023-11-19T07:07:30;3.73;;;3.43;;
22826;SDS011;11580;52.562;13.418;2023-11-19T07:09:58;3.17;;;2.87;;
22826;SDS011;11580;52.562;13.418;2023-11-19T07:12:25;3.60;;;3.30;;
22826;SDS011;11580;52.562;13.418;2023-11-19T07:14:53;3.83;;;3.53;;
22826;SDS011;11580;52.562;13.418;2023-11-19T07:17:21;3.40;;;3.20;;
22826;SDS011;11580;52.562;13.418;2023-11-19T07:19:49;3.23;;;3.03;;
22826;SDS011;11580;52.562;13.418;2023-11-19T07:22:18;3.43;;;3.20;;
22826;SDS011;11580;52.562;13.418;2023-11-19T07:24:45;4.00;;;3.70;;
22826;SDS011;11580;52.562;13.418;2023-11-19T07:27:12;3.40;;;3.20;;
22826;SDS011;11580;52.562;13.418;2023-11-19T07:29:42;2.80;;;2.60;;
22826;SDS011;11580;52.562;13.418;2023-11-19T07:32:10;3.20;;;3.00;;
22826;SDS011;11580;52.562;13.418;2023-11-19T07:34:38;3.13;;;2.93;;
22826;SDS011;11580;52.562;13.418;2023-11-19T07:37:06;3.33;;;3.13;;
22826;SDS011;11580;52.562;13.418;2023-11-19T07:39:34;3.07;;;2.87;;
22826;SDS011;11580;52.562;13.418;2023-11-19T07:42:03;3.23;;;2.93;;
22826;SDS011;11580;52.562;13.418;2023-11-19T07:44:30;3.80;;;3.50;;
22826;SDS011;11580;52.562;13.418;2023-11-19T07:46:57;3.47;;;3.23;;
22826;SDS011;11580;52.562;13.418;2023-11-19T07:49:25;3.10;;;2.90;;
22826;SDS011;11580;52.562;13.418;2023-11-19T07:51:52;3.53;;;3.33;;
22826;SDS011;11580;52.562;13.418;2023-11-19T07:54:19;3.17;;;2.97;;
22826;SDS011;11580;52.562;13.418;2023-11-19T07:56:48;3.33;;;3.13;;
22826;SDS011;11580;52.562;13.418;2023-11-19T07:59:16;3.20;;;3.00;;
22826;SDS011;11580;52.562;13.418;2023-11-19T08:01:43;3.17;;;2.97;;
22826;SDS011;11580;52.562;13.418;2023-11-19T08:04:10;3.57;;;3.37;;
22826;SDS011;11580;52.562;13.418;2023-11-19T08:06:37;3.20;;;3.00;;
22826;SDS011;11580;52.562;13.418;2023-11-19T08:09:04;3.40;;;3.20;;
22826;SDS011;11580;52.562;13.418;2023-11-19T08:11:36;3.33;;;3.13;;
22826;SDS011;11580;52.562;13.418;2023-11-19T08:14:06;3.50;;;3.20;;
22826;SDS011;11580;52.562;13.418;2023-11-19T08:16:33;3.50;;;3.20;;
22826;SDS011;11580;52.562;13.418;2023-11-19T08:19:01;3.90;;;3.70;;
22826;SDS011;11580;52.562;13.418;2023-11-19T08:21:28;4.53;;;4.13;;
22826;SDS011;11580;52.562;13.418;2023-11-19T08:23:56;3.60;;;3.40;;
22826;SDS011;11580;52.562;13.418;2023-11-19T08:26:23;3.40;;;3.10;;
22826;SDS011;11580;52.562;13.418;2023-11-19T08:28:50;2.87;;;2.67;;
22826;SDS011;11580;52.562;13.418;2023-11-19T08:31:19;3.40;;;3.20;;
22826;SDS011;11580;52.562;13.418;2023-11-19T08:33:46;3.63;;;2.97;;
22826;SDS011;11580;52.562;13.418;2023-11-19T08:36:17;3.43;;;3.20;;
22826;SDS011;11580;52.562;13.418;2023-11-19T08:38:45;3.43;;;3.13;;
22826;SDS011;11580;52.562;13.418;2023-11-19T08:41:13;4.20;;;3.80;;
22826;SDS011;11580;52.562;13.418;2023-11-19T08:43:43;3.70;;;3.40;;
22826;SDS011;11580;52.562;13.418;2023-11-19T08:46:10;3.70;;;3.50;;
22826;SDS011;11580;52.562;13.418;2023-11-19T08:48:39;4.37;;;4.07;;
22826;SDS011;11580;52.562;13.418;2023-11-19T08:51:06;4.20;;;3.90;;
22826;SDS011;11580;52.562;13.418;2023-11-19T08:53:33;3.47;;;3.17;;
22826;SDS011;11580;52.562;13.418;2023-11-19T08:56:00;3.63;;;3.33;;
22826;SDS011;11580;52.562;13.418;2023-11-19T08:58:28;4.00;;;3.70;;
22826;SDS011;11580;52.562;13.418;2023-11-19T09:00:56;3.40;;;3.20;;
22826;SDS011;11580;52.562;13.418;2023-11-19T09:03:23;3.83;;;3.53;;
22826;SDS011;11580;52.562;13.418;2023-11-19T09:05:53;3.63;;;3.43;;
22826;SDS011;11580;52.562;13.418;2023-11-19T09:08:20;3.20;;;3.00;;
22826;SDS011;11580;52.562;13.418;2023-11-19T09:10:47;3.57;;;3.27;;
22826;SDS011;11580;52.562;13.418;2023-11-19T09:13:14;4.40;;;4.10;;
22826;SDS011;11580;52.562;13.418;2023-11-19T09:15:41;3.90;;;3.60;;
22826;SDS011;11580;52.562;13.418;2023-11-19T09:18:08;3.30;;;3.10;;
22826;SDS011;11580;52.562;13.418;2023-11-19T09:20:36;3.23;;;3.03;;
22826;SDS011;11580;52.562;13.418;2023-11-19T09:23:05;3.30;;;3.10;;
22826;SDS011;11580;52.562;13.418;2023-11-19T09:25:34;5.40;;;3.63;;
22826;SDS011;11580;52.562;13.418;2023-11-19T09:28:01;3.43;;;3.23;;
22826;SDS011;11580;52.562;13.418;2023-11-19T09:30:28;3.37;;;3.17;;
22826;SDS011;11580;52.562;13.418;2023-11-19T09:32:58;2.90;;;2.70;;
22826;SDS011;11580;52.562;13.418;2023-11-19T09:35:26;3.23;;;3.00;;
22826;SDS011;11580;52.562;13.418;2023-11-19T09:37:52;3.97;;;3.67;;
22826;SDS011;11580;52.562;13.418;2023-11-19T09:40:20;3.23;;;3.03;;
22826;SDS011;11580;52.562;13.418;2023-11-19T09:42:48;3.20;;;2.90;;
22826;SDS011;11580;52.562;13.418;2023-11-19T09:45:15;3.20;;;2.90;;
22826;SDS011;11580;52.562;13.418;2023-11-19T09:47:44;2.90;;;2.70;;
22826;SDS011;11580;52.562;13.418;2023-11-19T09:50:14;2.80;;;2.60;;
22826;SDS011;11580;52.562;13.418;2023-11-19T09:52:44;2.40;;;2.20;;
22826;SDS011;11580;52.562;13.418;2023-11-19T09:55:12;4.00;;;3.17;;
22826;SDS011;11580;52.562;13.418;2023-11-19T09:57:41;2.67;;;2.47;;
22826;SDS011;11580;52.562;13.418;2023-11-19T10:00:10;2.47;;;2.27;;
22826;SDS011;11580;52.562;13.418;2023-11-19T10:02:41;2.20;;;2.00;;
22826;SDS011;11580;52.562;13.418;2023-11-19T10:05:11;2.70;;;2.50;;
22826;SDS011;11580;52.562;13.418;2023-11-19T10:07:39;3.13;;;2.93;;
22826;SDS011;11580;52.562;13.418;2023-11-19T10:10:08;2.23;;;2.13;;
22826;SDS011;11580;52.562;13.418;2023-11-19T10:12:39;2.57;;;2.37;;
22826;SDS011;11580;52.562;13.418;2023-11-19T10:15:08;2.40;;;2.20;;
22826;SDS011;11580;52.562;13.418;2023-11-19T10:17:48;3.20;;;2.20;;
22826;SDS011;11580;52.562;13.418;2023-11-19T10:20:15;2.27;;;2.07;;
22826;SDS011;11580;52.562;13.418;2023-11-19T10:22:42;2.20;;;2.10;;
22826;SDS011;11580;52.562;13.418;2023-11-19T10:25:21;2.13;;;2.03;;
22826;SDS011;11580;52.562;13.418;2023-11-19T10:27:50;4.10;;;2.43;;
22826;SDS011;11580;52.562;13.418;2023-11-19T10:30:19;2.23;;;2.10;;
22826;SDS011;11580;52.562;13.418;2023-11-19T10:33:01;2.17;;;2.07;;
22826;SDS011;11580;52.562;13.418;2023-11-19T10:35:31;2.43;;;2.20;;
22826;SDS011;11580;52.562;13.418;2023-11-19T10:37:59;3.50;;;1.90;;
22826;SDS011;11580;52.562;13.418;2023-11-19T10:40:37;2.23;;;2.13;;
22826;SDS011;11580;52.562;13.418;2023-11-19T10:43:06;2.50;;;1.70;;
22826;SDS011;11580;52.562;13.418;2023-11-19T10:45:35;2.50;;;1.70;;
22826;SDS011;11580;52.562;13.418;2023-11-19T10:48:04;1.90;;;1.63;;
22826;SDS011;11580;52.562;13.418;2023-11-19T10:50:33;3.77;;;2.17;;
22826;SDS011;11580;52.562;13.418;2023-11-19T10:53:01;2.10;;;1.90;;
22826;SDS011;11580;52.562;13.418;2023-11-19T10:55:30;3.50;;;2.30;;
22826;SDS011;11580;52.562;13.418;2023-11-19T10:58:00;3.53;;;2.20;;
22826;SDS011;11580;52.562;13.418;2023-11-19T11:00:32;4.00;;;2.40;;
22826;SDS011;11580;52.562;13.418;2023-11-19T11:03:08;2.70;;;2.50;;
22826;SDS011;11580;52.562;13.418;2023-11-19T11:05:43;4.70;;;2.70;;
22826;SDS011;11580;52.562;13.418;2023-11-19T11:08:14;4.57;;;2.70;;
22826;SDS011;11580;52.562;13.418;2023-11-19T11:10:42;3.70;;;2.40;;
22826;SDS011;11580;52.562;13.418;2023-11-19T11:13:13;6.33;;;3.10;;
22826;SDS011;11580;52.562;13.418;2023-11-19T11:15:42;5.20;;;3.10;;
22826;SDS011;11580;52.562;13.418;2023-11-19T11:18:11;3.80;;;2.77;;
22826;SDS011;11580;52.562;13.418;2023-11-19T11:20:40;3.33;;;2.73;;
22826;SDS011;11580;52.562;13.418;2023-11-19T11:23:29;5.57;;;2.80;;
22826;SDS011;11580;52.562;13.418;2023-11-19T11:26:24;5.50;;;2.97;;
22826;SDS011;11580;52.562;13.418;2023-11-19T11:29:10;6.37;;;3.17;;
22826;SDS011;11580;52.562;13.418;2023-11-19T11:31:54;3.60;;;2.73;;
22826;SDS011;11580;52.562;13.418;2023-11-19T11:34:40;6.73;;;2.80;;
22826;SDS011;11580;52.562;13.418;2023-11-19T11:37:26;3.23;;;2.93;;
22826;SDS011;11580;52.562;13.418;2023-11-19T11:40:00;9.90;;;3.53;;
22826;SDS011;11580;52.562;13.418;2023-11-19T11:42:35;5.57;;;3.13;;
22826;SDS011;11580;52.562;13.418;2023-11-19T11:45:04;7.23;;;3.03;;
22826;SDS011;11580;52.562;13.418;2023-11-19T11:50:56;5.20;;;3.33;;
22826;SDS011;11580;52.562;13.418;2023-11-19T11:53:25;8.17;;;3.90;;
22826;SDS011;11580;52.562;13.418;2023-11-19T11:55:53;6.00;;;4.20;;
22826;SDS011;11580;52.562;13.418;2023-11-19T11:58:27;7.00;;;3.40;;
22826;SDS011;11580;52.562;13.418;2023-11-19T12:01:01;5.20;;;3.47;;
22826;SDS011;11580;52.562;13.418;2023-11-19T12:03:33;4.40;;;3.33;;
22826;SDS011;11580;52.562;13.418;2023-11-19T12:06:00;4.10;;;3.10;;
22826;SDS011;11580;52.562;13.418;2023-11-19T12:08:29;5.83;;;3.30;;
22826;SDS011;11580;52.562;13.418;2023-11-19T12:10:57;7.57;;;3.93;;
22826;SDS011;11580;52.562;13.418;2023-11-19T12:13:47;12.47;;;4.33;;
22826;SDS011;11580;52.562;13.418;2023-11-19T12:16:23;7.90;;;3.97;;
22826;SDS011;11580;52.562;13.418;2023-11-19T12:18:54;4.87;;;2.83;;
22826;SDS011;11580;52.562;13.418;2023-11-19T12:21:29;6.50;;;3.50;;
22826;SDS011;11580;52.562;13.418;2023-11-19T12:23:58;6.10;;;3.73;;
22826;SDS011;11580;52.562;13.418;2023-11-19T12:26:38;4.93;;;3.10;;
22826;SDS011;11580;52.562;13.418;2023-11-19T12:29:06;6.77;;;3.90;;
22826;SDS011;11580;52.562;13.418;2023-11-19T12:31:34;7.67;;;3.63;;
22826;SDS011;11580;52.562;13.418;2023-11-19T12:34:11;5.80;;;3.20;;
22826;SDS011;11580;52.562;13.418;2023-11-19T12:36:38;10.23;;;5.23;;
22826;SDS011;11580;52.562;13.418;2023-11-19T12:39:10;6.07;;;4.00;;
22826;SDS011;11580;52.562;13.418;2023-11-19T12:41:50;6.20;;;3.77;;
22826;SDS011;11580;52.562;13.418;2023-11-19T12:44:20;4.93;;;3.57;;
22826;SDS011;11580;52.562;13.418;2023-11-19T12:47:01;8.53;;;4.60;;
22826;SDS011;11580;52.562;13.418;2023-11-19T12:49:31;8.60;;;4.10;;
22826;SDS011;11580;52.562;13.418;2023-11-19T12:51:58;8.63;;;4.00;;
22826;SDS011;11580;52.562;13.418;2023-11-19T12:54:33;9.10;;;3.93;;
22826;SDS011;11580;52.562;13.418;2023-11-19T12:57:02;8.40;;;4.63;;
22826;SDS011;11580;52.562;13.418;2023-11-19T12:59:31;7.03;;;3.97;;
22826;SDS011;11580;52.562;13.418;2023-11-19T13:01:58;9.60;;;4.27;;
22826;SDS011;11580;52.562;13.418;2023-11-19T13:04:28;7.47;;;3.37;;
22826;SDS011;11580;52.562;13.418;2023-11-19T13:06:57;9.07;;;4.10;;
22826;SDS011;11580;52.562;13.418;2023-11-19T13:09:25;6.47;;;4.17;;
22826;SDS011;11580;52.562;13.418;2023-11-19T13:11:54;12.00;;;3.93;;
22826;SDS011;11580;52.562;13.418;2023-11-19T13:14:23;8.63;;;3.80;;
22826;SDS011;11580;52.562;13.418;2023-11-19T13:17:02;6.83;;;4.00;;
22826;SDS011;11580;52.562;13.418;2023-11-19T13:19:32;10.83;;;5.23;;
22826;SDS011;11580;52.562;13.418;2023-11-19T13:21:59;5.90;;;3.50;;
22826;SDS011;11580;52.562;13.418;2023-11-19T13:24:26;8.27;;;3.83;;
22826;SDS011;11580;52.562;13.418;2023-11-19T13:26:53;5.97;;;3.90;;
22826;SDS011;11580;52.562;13.418;2023-11-19T13:29:21;8.43;;;4.77;;
22826;SDS011;11580;52.562;13.418;2023-11-19T13:31:48;7.00;;;3.83;;
22826;SDS011;11580;52.562;13.418;2023-11-19T13:34:15;8.00;;;3.80;;
22826;SDS011;11580;52.562;13.418;2023-11-19T13:36:44;7.80;;;4.27;;
22826;SDS011;11580;52.562;13.418;2023-11-19T13:39:11;6.80;;;3.23;;
22826;SDS011;11580;52.562;13.418;2023-11-19T13:41:38;10.63;;;3.90;;
22826;SDS011;11580;52.562;13.418;2023-11-19T13:44:05;8.67;;;4.27;;
22826;SDS011;11580;52.562;13.418;2023-11-19T13:46:32;7.30;;;3.90;;
22826;SDS011;11580;52.562;13.418;2023-11-19T13:48:59;8.97;;;5.13;;
22826;SDS011;11580;52.562;13.418;2023-11-19T13:51:27;7.70;;;3.90;;
22826;SDS011;11580;52.562;13.418;2023-11-19T13:53:55;7.40;;;4.40;;
22826;SDS011;11580;52.562;13.418;2023-11-19T13:56:22;8.10;;;4.07;;
22826;SDS011;11580;52.562;13.418;2023-11-19T13:58:49;8.37;;;4.00;;
22826;SDS011;11580;52.562;13.418;2023-11-19T14:01:18;9.43;;;4.40;;
22826;SDS011;11580;52.562;13.418;2023-11-19T14:03:45;8.70;;;3.87;;
22826;SDS011;11580;52.562;13.418;2023-11-19T14:06:12;9.27;;;4.57;;
22826;SDS011;11580;52.562;13.418;2023-11-19T14:08:39;6.73;;;3.93;;
22826;SDS011;11580;52.562;13.418;2023-11-19T14:11:08;10.40;;;4.90;;
22826;SDS011;11580;52.562;13.418;2023-11-19T14:13:35;9.13;;;4.20;;
22826;SDS011;11580;52.562;13.418;2023-11-19T14:16:03;5.97;;;4.00;;
22826;SDS011;11580;52.562;13.418;2023-11-19T14:18:34;6.43;;;3.70;;
22826;SDS011;11580;52.562;13.418;2023-11-19T14:21:01;6.97;;;4.10;;
22826;SDS011;11580;52.562;13.418;2023-11-19T14:23:28;9.40;;;4.00;;
22826;SDS011;11580;52.562;13.418;2023-11-19T14:25:56;9.80;;;5.53;;
22826;SDS011;11580;52.562;13.418;2023-11-19T14:28:24;11.73;;;4.90;;
22826;SDS011;11580;52.562;13.418;2023-11-19T14:30:52;10.37;;;4.40;;
22826;SDS011;11580;52.562;13.418;2023-11-19T14:33:22;8.50;;;5.00;;
22826;SDS011;11580;52.562;13.418;2023-11-19T14:35:50;10.07;;;4.43;;
22826;SDS011;11580;52.562;13.418;2023-11-19T14:38:18;9.00;;;4.53;;
22826;SDS011;11580;52.562;13.418;2023-11-19T14:40:45;10.70;;;5.00;;
22826;SDS011;11580;52.562;13.418;2023-11-19T14:43:13;13.97;;;5.50;;
22826;SDS011;11580;52.562;13.418;2023-11-19T14:45:42;11.03;;;5.67;;
22826;SDS011;11580;52.562;13.418;2023-11-19T14:48:09;7.57;;;4.53;;